sensor_id;sensor_type;location;lat;lon;timestamp;pressure;altitude;pressure_sealevel;temperature;humidity
63535;BME280;55128;50.230;18.944;2023-03-26T00:02:34;97503.25;;;8.85;64.03
63535;BME280;55128;50.230;18.944;2023-03-26T00:07:39;97501.69;;;8.97;63.85
63535;BME280;55128;50.230;18.944;2023-03-26T00:12:40;97517.63;;;8.95;63.96
63535;BME280;55128;50.230;18.944;2023-03-26T00:17:40;97550.03;;;8.84;65.33
63535;BME280;55128;50.230;18.944;2023-03-26T00:22:40;97535.91;;;8.84;68.04
63535;BME280;55128;50.230;18.944;2023-03-26T00:27:41;97504.59;;;8.76;70.38
63535;BME280;55128;50.230;18.944;2023-03-26T00:32:42;97502.75;;;8.46;72.33
63535;BME280;55128;50.230;18.944;2023-03-26T00:37:42;97497.28;;;8.33;73.16
63535;BME280;55128;50.230;18.944;2023-03-26T00:42:45;97481.78;;;8.43;73.93
63535;BME280;55128;50.230;18.944;2023-03-26T00:47:45;97484.97;;;8.32;74.50
63535;BME280;55128;50.230;18.944;2023-03-26T00:52:45;97478.81;;;8.16;74.15
63535;BME280;55128;50.230;18.944;2023-03-26T00:57:46;97464.84;;;8.14;74.58
63535;BME280;55128;50.230;18.944;2023-03-26T01:02:46;97458.88;;;8.10;74.10
63535;BME280;55128;50.230;18.944;2023-03-26T01:07:46;97460.81;;;8.07;73.49
63535;BME280;55128;50.230;18.944;2023-03-26T01:12:47;97456.63;;;7.87;74.25
63535;BME280;55128;50.230;18.944;2023-03-26T01:17:47;97461.38;;;7.64;74.05
63535;BME280;55128;50.230;18.944;2023-03-26T01:22:54;97450.75;;;7.48;74.15
63535;BME280;55128;50.230;18.944;2023-03-26T01:27:57;97453.75;;;7.25;73.92
63535;BME280;55128;50.230;18.944;2023-03-26T01:33:11;97452.50;;;7.14;74.15
63535;BME280;55128;50.230;18.944;2023-03-26T01:48:33;97443.19;;;6.90;73.94
63535;BME280;55128;50.230;18.944;2023-03-26T01:53:40;97430.53;;;6.79;74.29
63535;BME280;55128;50.230;18.944;2023-03-26T01:59:16;97433.78;;;6.84;73.90
63535;BME280;55128;50.230;18.944;2023-03-26T02:04:53;97425.56;;;6.73;74.22
63535;BME280;55128;50.230;18.944;2023-03-26T02:09:58;97436.03;;;6.92;74.36
63535;BME280;55128;50.230;18.944;2023-03-26T02:15:01;97434.09;;;7.13;74.05
63535;BME280;55128;50.230;18.944;2023-03-26T02:20:02;97437.09;;;7.40;73.61
63535;BME280;55128;50.230;18.944;2023-03-26T02:25:13;97437.03;;;7.42;71.59
63535;BME280;55128;50.230;18.944;2023-03-26T02:30:20;97436.97;;;7.59;71.76
63535;BME280;55128;50.230;18.944;2023-03-26T02:35:24;97436.41;;;7.70;71.43
63535;BME280;55128;50.230;18.944;2023-03-26T02:40:25;97433.59;;;7.73;71.43
63535;BME280;55128;50.230;18.944;2023-03-26T02:45:25;97439.75;;;7.73;71.35
63535;BME280;55128;50.230;18.944;2023-03-26T02:50:26;97438.38;;;7.66;71.58
63535;BME280;55128;50.230;18.944;2023-03-26T02:55:26;97421.97;;;7.59;71.59
63535;BME280;55128;50.230;18.944;2023-03-26T03:00:26;97406.41;;;7.55;71.27
63535;BME280;55128;50.230;18.944;2023-03-26T03:05:28;97418.41;;;7.61;71.42
63535;BME280;55128;50.230;18.944;2023-03-26T03:10:30;97416.28;;;7.67;71.08
63535;BME280;55128;50.230;18.944;2023-03-26T03:15:34;97414.34;;;7.71;70.81
63535;BME280;55128;50.230;18.944;2023-03-26T03:20:34;97422.44;;;7.68;70.05
63535;BME280;55128;50.230;18.944;2023-03-26T03:25:35;97407.38;;;7.70;70.34
63535;BME280;55128;50.230;18.944;2023-03-26T03:30:37;97410.22;;;7.65;70.07
63535;BME280;55128;50.230;18.944;2023-03-26T03:35:37;97405.44;;;7.56;70.37
63535;BME280;55128;50.230;18.944;2023-03-26T03:40:39;97412.50;;;7.39;69.84
63535;BME280;55128;50.230;18.944;2023-03-26T03:45:39;97418.84;;;7.53;70.10
63535;BME280;55128;50.230;18.944;2023-03-26T03:50:39;97428.28;;;7.57;70.48
63535;BME280;55128;50.230;18.944;2023-03-26T03:55:41;97424.53;;;7.61;69.78
63535;BME280;55128;50.230;18.944;2023-03-26T04:00:42;97431.84;;;7.56;70.40
63535;BME280;55128;50.230;18.944;2023-03-26T04:05:44;97429.34;;;7.70;71.08
63535;BME280;55128;50.230;18.944;2023-03-26T04:10:48;97426.69;;;7.86;69.85
63535;BME280;55128;50.230;18.944;2023-03-26T04:15:49;97428.91;;;7.78;70.66
63535;BME280;55128;50.230;18.944;2023-03-26T04:20:49;97427.63;;;7.69;70.47
63535;BME280;55128;50.230;18.944;2023-03-26T04:25:53;97418.44;;;7.76;69.27
63535;BME280;55128;50.230;18.944;2023-03-26T04:30:55;97417.25;;;7.66;69.75
63535;BME280;55128;50.230;18.944;2023-03-26T04:36:00;97419.00;;;7.66;70.07
63535;BME280;55128;50.230;18.944;2023-03-26T04:41:01;97418.88;;;7.85;69.15
63535;BME280;55128;50.230;18.944;2023-03-26T04:46:02;97421.34;;;7.88;69.69
63535;BME280;55128;50.230;18.944;2023-03-26T04:51:04;97421.69;;;7.82;69.46
63535;BME280;55128;50.230;18.944;2023-03-26T04:56:29;97429.03;;;7.92;68.63
63535;BME280;55128;50.230;18.944;2023-03-26T05:01:32;97420.41;;;7.89;68.42
63535;BME280;55128;50.230;18.944;2023-03-26T05:06:36;97410.53;;;7.92;67.71
63535;BME280;55128;50.230;18.944;2023-03-26T05:11:37;97413.00;;;7.95;67.91
63535;BME280;55128;50.230;18.944;2023-03-26T05:16:37;97421.88;;;8.10;67.88
63535;BME280;55128;50.230;18.944;2023-03-26T05:21:38;97415.22;;;8.03;66.92
63535;BME280;55128;50.230;18.944;2023-03-26T05:26:39;97423.50;;;8.13;66.38
63535;BME280;55128;50.230;18.944;2023-03-26T05:31:40;97416.25;;;8.16;66.77
63535;BME280;55128;50.230;18.944;2023-03-26T05:36:40;97423.91;;;8.21;66.34
63535;BME280;55128;50.230;18.944;2023-03-26T05:41:41;97419.41;;;8.23;66.16
63535;BME280;55128;50.230;18.944;2023-03-26T05:46:42;97419.91;;;8.46;65.20
63535;BME280;55128;50.230;18.944;2023-03-26T05:51:42;97419.47;;;8.69;64.78
63535;BME280;55128;50.230;18.944;2023-03-26T05:56:42;97424.91;;;8.82;63.73
63535;BME280;55128;50.230;18.944;2023-03-26T06:01:43;97430.94;;;9.29;62.78
63535;BME280;55128;50.230;18.944;2023-03-26T06:06:44;97436.81;;;9.20;62.22
63535;BME280;55128;50.230;18.944;2023-03-26T06:11:44;97424.22;;;9.23;62.77
63535;BME280;55128;50.230;18.944;2023-03-26T06:16:44;97430.31;;;9.25;62.34
63535;BME280;55128;50.230;18.944;2023-03-26T06:21:45;97432.31;;;11.17;59.26
63535;BME280;55128;50.230;18.944;2023-03-26T06:26:46;97437.53;;;12.69;55.22
63535;BME280;55128;50.230;18.944;2023-03-26T06:31:46;97428.34;;;12.73;52.75
63535;BME280;55128;50.230;18.944;2023-03-26T06:36:47;97436.25;;;12.38;53.31
63535;BME280;55128;50.230;18.944;2023-03-26T06:41:47;97442.13;;;11.67;53.13
63535;BME280;55128;50.230;18.944;2023-03-26T06:46:48;97438.03;;;11.23;54.98
63535;BME280;55128;50.230;18.944;2023-03-26T06:51:48;97448.16;;;10.91;55.50
63535;BME280;55128;50.230;18.944;2023-03-26T06:56:48;97450.97;;;10.48;57.14
63535;BME280;55128;50.230;18.944;2023-03-26T07:01:49;97439.03;;;10.26;58.27
63535;BME280;55128;50.230;18.944;2023-03-26T07:06:49;97433.66;;;10.28;58.16
63535;BME280;55128;50.230;18.944;2023-03-26T07:11:50;97441.22;;;10.48;57.85
63535;BME280;55128;50.230;18.944;2023-03-26T07:16:50;97448.25;;;10.35;57.84
63535;BME280;55128;50.230;18.944;2023-03-26T07:21:51;97440.50;;;10.32;58.24
63535;BME280;55128;50.230;18.944;2023-03-26T07:32:40;97445.22;;;10.41;58.14
63535;BME280;55128;50.230;18.944;2023-03-26T07:38:02;97442.47;;;10.43;57.67
63535;BME280;55128;50.230;18.944;2023-03-26T07:48:22;97455.38;;;10.62;57.69
63535;BME280;55128;50.230;18.944;2023-03-26T07:53:29;97448.06;;;11.05;56.05
63535;BME280;55128;50.230;18.944;2023-03-26T07:59:19;97443.91;;;11.41;56.06
63535;BME280;55128;50.230;18.944;2023-03-26T08:20:38;97447.06;;;15.01;45.07
63535;BME280;55128;50.230;18.944;2023-03-26T08:26:01;97440.72;;;14.69;45.86
63535;BME280;55128;50.230;18.944;2023-03-26T08:31:06;97442.00;;;14.20;46.46
63535;BME280;55128;50.230;18.944;2023-03-26T08:36:09;97443.13;;;13.95;47.63
63535;BME280;55128;50.230;18.944;2023-03-26T08:46:26;97439.72;;;15.14;45.07
63535;BME280;55128;50.230;18.944;2023-03-26T08:56:51;97428.34;;;16.56;40.92
63535;BME280;55128;50.230;18.944;2023-03-26T09:13:35;97421.59;;;15.60;41.49
63535;BME280;55128;50.230;18.944;2023-03-26T09:34:31;97412.97;;;14.93;42.96
63535;BME280;55128;50.230;18.944;2023-03-26T09:39:35;97401.69;;;14.57;43.46
63535;BME280;55128;50.230;18.944;2023-03-26T09:55:20;97421.03;;;12.88;57.08
63535;BME280;55128;50.230;18.944;2023-03-26T10:05:35;97412.50;;;12.11;60.40
63535;BME280;55128;50.230;18.944;2023-03-26T10:10:52;97409.53;;;12.02;62.90
63535;BME280;55128;50.230;18.944;2023-03-26T10:26:38;97393.38;;;12.78;61.32
63535;BME280;55128;50.230;18.944;2023-03-26T10:58:43;97369.06;;;14.74;50.13
63535;BME280;55128;50.230;18.944;2023-03-26T11:03:51;97363.31;;;14.58;51.04
63535;BME280;55128;50.230;18.944;2023-03-26T11:09:04;97356.84;;;14.93;48.71
63535;BME280;55128;50.230;18.944;2023-03-26T11:14:19;97350.81;;;15.94;46.66
63535;BME280;55128;50.230;18.944;2023-03-26T11:19:38;97340.41;;;16.01;46.76
63535;BME280;55128;50.230;18.944;2023-03-26T11:40:20;97321.97;;;15.46;42.83
63535;BME280;55128;50.230;18.944;2023-03-26T11:45:26;97320.53;;;15.32;43.43
63535;BME280;55128;50.230;18.944;2023-03-26T11:50:31;97309.69;;;15.34;43.44
63535;BME280;55128;50.230;18.944;2023-03-26T11:55:33;97321.88;;;14.64;44.52
63535;BME280;55128;50.230;18.944;2023-03-26T12:00:34;97313.09;;;14.94;45.23
63535;BME280;55128;50.230;18.944;2023-03-26T12:05:46;97297.06;;;15.15;44.20
63535;BME280;55128;50.230;18.944;2023-03-26T12:10:59;97306.72;;;15.58;43.50
63535;BME280;55128;50.230;18.944;2023-03-26T12:16:09;97289.31;;;15.12;40.71
63535;BME280;55128;50.230;18.944;2023-03-26T12:26:14;97268.22;;;15.49;41.21
63535;BME280;55128;50.230;18.944;2023-03-26T12:31:16;97263.84;;;14.66;41.01
63535;BME280;55128;50.230;18.944;2023-03-26T12:36:21;97259.00;;;14.81;40.79
63535;BME280;55128;50.230;18.944;2023-03-26T12:41:38;97244.94;;;14.78;39.86
63535;BME280;55128;50.230;18.944;2023-03-26T12:46:39;97246.44;;;15.23;40.10
63535;BME280;55128;50.230;18.944;2023-03-26T12:51:58;97233.22;;;15.62;38.95
63535;BME280;55128;50.230;18.944;2023-03-26T12:57:24;97225.00;;;15.75;39.57
63535;BME280;55128;50.230;18.944;2023-03-26T13:03:09;97228.97;;;15.50;40.73
63535;BME280;55128;50.230;18.944;2023-03-26T13:08:26;97224.81;;;15.26;42.25
63535;BME280;55128;50.230;18.944;2023-03-26T13:24:24;97219.06;;;15.00;41.00
63535;BME280;55128;50.230;18.944;2023-03-26T13:45:38;97200.56;;;15.18;40.72
63535;BME280;55128;50.230;18.944;2023-03-26T13:50:50;97192.19;;;14.71;41.63
63535;BME280;55128;50.230;18.944;2023-03-26T13:55:58;97194.59;;;14.53;42.92
63535;BME280;55128;50.230;18.944;2023-03-26T14:06:11;97187.06;;;14.47;42.70
63535;BME280;55128;50.230;18.944;2023-03-26T14:12:16;97180.94;;;14.56;43.35
63535;BME280;55128;50.230;18.944;2023-03-26T14:17:16;97174.72;;;14.46;42.53
63535;BME280;55128;50.230;18.944;2023-03-26T14:22:29;97164.06;;;14.25;42.42
63535;BME280;55128;50.230;18.944;2023-03-26T14:32:48;97156.34;;;13.89;42.67
63535;BME280;55128;50.230;18.944;2023-03-26T14:53:53;97146.53;;;13.46;44.16
63535;BME280;55128;50.230;18.944;2023-03-26T15:51:54;97113.53;;;13.91;41.28
63535;BME280;55128;50.230;18.944;2023-03-26T16:02:41;97110.13;;;13.89;41.49
63535;BME280;55128;50.230;18.944;2023-03-26T16:18:56;97091.91;;;13.40;41.75
63535;BME280;55128;50.230;18.944;2023-03-26T16:45:21;97094.06;;;12.80;42.31
63535;BME280;55128;50.230;18.944;2023-03-26T16:50:44;97084.25;;;12.58;43.35
63535;BME280;55128;50.230;18.944;2023-03-26T17:07:06;97085.31;;;11.99;45.25
63535;BME280;55128;50.230;18.944;2023-03-26T17:12:24;97097.31;;;11.81;46.14
63535;BME280;55128;50.230;18.944;2023-03-26T17:27:50;97082.41;;;11.43;47.32
63535;BME280;55128;50.230;18.944;2023-03-26T17:38:02;97093.75;;;11.34;47.47
63535;BME280;55128;50.230;18.944;2023-03-26T17:43:09;97101.56;;;11.11;48.78
63535;BME280;55128;50.230;18.944;2023-03-26T17:48:15;97098.41;;;11.06;48.59
63535;BME280;55128;50.230;18.944;2023-03-26T17:53:27;97098.09;;;10.98;49.93
63535;BME280;55128;50.230;18.944;2023-03-26T17:58:39;97095.06;;;10.91;48.94
63535;BME280;55128;50.230;18.944;2023-03-26T18:03:50;97091.03;;;10.85;50.07
63535;BME280;55128;50.230;18.944;2023-03-26T18:09:17;97085.94;;;10.82;49.71
63535;BME280;55128;50.230;18.944;2023-03-26T18:20:25;97093.69;;;10.85;50.47
63535;BME280;55128;50.230;18.944;2023-03-26T18:25:30;97094.44;;;10.87;50.32
63535;BME280;55128;50.230;18.944;2023-03-26T18:30:43;97088.22;;;11.00;49.96
63535;BME280;55128;50.230;18.944;2023-03-26T18:35:50;97099.09;;;10.97;49.90
63535;BME280;55128;50.230;18.944;2023-03-26T18:40:53;97097.69;;;11.04;49.90
63535;BME280;55128;50.230;18.944;2023-03-26T18:45:55;97102.13;;;11.03;50.06
63535;BME280;55128;50.230;18.944;2023-03-26T18:50:59;97099.81;;;10.99;50.25
63535;BME280;55128;50.230;18.944;2023-03-26T18:56:01;97100.00;;;11.08;50.03
63535;BME280;55128;50.230;18.944;2023-03-26T19:01:04;97102.13;;;11.03;51.93
63535;BME280;55128;50.230;18.944;2023-03-26T19:06:10;97099.94;;;10.84;54.52
63535;BME280;55128;50.230;18.944;2023-03-26T19:11:14;97095.84;;;10.67;54.51
63535;BME280;55128;50.230;18.944;2023-03-26T19:16:22;97093.25;;;10.92;54.14
63535;BME280;55128;50.230;18.944;2023-03-26T19:21:24;97088.91;;;10.91;54.54
63535;BME280;55128;50.230;18.944;2023-03-26T19:26:25;97087.31;;;10.88;54.71
63535;BME280;55128;50.230;18.944;2023-03-26T19:31:31;97074.94;;;10.76;54.40
63535;BME280;55128;50.230;18.944;2023-03-26T19:36:32;97064.81;;;10.81;54.49
63535;BME280;55128;50.230;18.944;2023-03-26T19:41:38;97069.56;;;10.64;56.23
63535;BME280;55128;50.230;18.944;2023-03-26T19:46:42;97076.44;;;10.67;56.69
63535;BME280;55128;50.230;18.944;2023-03-26T19:51:43;97067.75;;;10.52;58.83
63535;BME280;55128;50.230;18.944;2023-03-26T19:56:44;97065.56;;;10.33;60.69
63535;BME280;55128;50.230;18.944;2023-03-26T20:01:45;97068.81;;;10.24;63.11
63535;BME280;55128;50.230;18.944;2023-03-26T20:06:45;97061.41;;;10.03;65.44
63535;BME280;55128;50.230;18.944;2023-03-26T20:11:48;97053.16;;;9.95;65.52
63535;BME280;55128;50.230;18.944;2023-03-26T20:16:51;97049.88;;;10.04;67.56
63535;BME280;55128;50.230;18.944;2023-03-26T20:21:52;97038.19;;;10.07;67.47
63535;BME280;55128;50.230;18.944;2023-03-26T20:26:52;97029.06;;;9.98;66.61
63535;BME280;55128;50.230;18.944;2023-03-26T20:31:52;97023.56;;;10.01;67.26
63535;BME280;55128;50.230;18.944;2023-03-26T20:36:53;97016.78;;;9.97;68.59
63535;BME280;55128;50.230;18.944;2023-03-26T20:41:54;97017.72;;;9.96;70.93
63535;BME280;55128;50.230;18.944;2023-03-26T20:46:55;97000.63;;;10.00;69.80
63535;BME280;55128;50.230;18.944;2023-03-26T20:51:57;96996.84;;;9.79;72.64
63535;BME280;55128;50.230;18.944;2023-03-26T20:56:59;96987.31;;;9.76;72.58
63535;BME280;55128;50.230;18.944;2023-03-26T21:01:59;96978.38;;;9.51;73.92
63535;BME280;55128;50.230;18.944;2023-03-26T21:07:00;96960.56;;;9.15;75.85
63535;BME280;55128;50.230;18.944;2023-03-26T21:12:04;96961.63;;;8.85;76.75
63535;BME280;55128;50.230;18.944;2023-03-26T21:17:07;96963.69;;;8.94;76.77
63535;BME280;55128;50.230;18.944;2023-03-26T21:22:43;96959.81;;;8.73;77.45
63535;BME280;55128;50.230;18.944;2023-03-26T21:27:50;96952.56;;;9.02;76.33
63535;BME280;55128;50.230;18.944;2023-03-26T21:32:53;96960.63;;;9.01;78.04
63535;BME280;55128;50.230;18.944;2023-03-26T21:37:53;96967.00;;;9.11;77.70
63535;BME280;55128;50.230;18.944;2023-03-26T21:42:56;96974.50;;;9.04;77.16
63535;BME280;55128;50.230;18.944;2023-03-26T21:47:57;96964.69;;;9.19;76.57
63535;BME280;55128;50.230;18.944;2023-03-26T21:53:00;96953.25;;;9.19;77.53
63535;BME280;55128;50.230;18.944;2023-03-26T21:58:19;96950.59;;;9.06;77.57
63535;BME280;55128;50.230;18.944;2023-03-26T22:03:46;96945.72;;;9.00;78.26
63535;BME280;55128;50.230;18.944;2023-03-26T22:08:49;96942.28;;;8.85;78.43
63535;BME280;55128;50.230;18.944;2023-03-26T22:13:49;96944.19;;;8.83;77.63
63535;BME280;55128;50.230;18.944;2023-03-26T22:18:51;96949.56;;;8.81;78.18
63535;BME280;55128;50.230;18.944;2023-03-26T22:23:52;96948.34;;;9.00;77.70
63535;BME280;55128;50.230;18.944;2023-03-26T22:28:52;96947.19;;;9.04;77.29
63535;BME280;55128;50.230;18.944;2023-03-26T22:33:53;96937.53;;;9.03;77.14
63535;BME280;55128;50.230;18.944;2023-03-26T22:38:54;96931.31;;;9.04;77.23
63535;BME280;55128;50.230;18.944;2023-03-26T22:43:55;96926.47;;;9.10;76.68
63535;BME280;55128;50.230;18.944;2023-03-26T22:48:57;96920.50;;;8.94;78.15
63535;BME280;55128;50.230;18.944;2023-03-26T22:53:58;96914.75;;;8.87;79.14
63535;BME280;55128;50.230;18.944;2023-03-26T22:58:58;96900.16;;;8.94;78.87
63535;BME280;55128;50.230;18.944;2023-03-26T23:03:59;96891.38;;;8.81;79.28
63535;BME280;55128;50.230;18.944;2023-03-26T23:08:59;96903.97;;;8.90;78.87
63535;BME280;55128;50.230;18.944;2023-03-26T23:14:00;96900.91;;;8.97;78.85
63535;BME280;55128;50.230;18.944;2023-03-26T23:19:01;96892.09;;;8.83;79.47
63535;BME280;55128;50.230;18.944;2023-03-26T23:24:01;96887.38;;;8.88;79.29
63535;BME280;55128;50.230;18.944;2023-03-26T23:29:03;96881.75;;;8.93;79.19
63535;BME280;55128;50.230;18.944;2023-03-26T23:34:04;96873.06;;;8.91;78.67
63535;BME280;55128;50.230;18.944;2023-03-26T23:39:04;96872.00;;;8.81;79.31
63535;BME280;55128;50.230;18.944;2023-03-26T23:44:04;96862.69;;;8.75;79.40
63535;BME280;55128;50.230;18.944;2023-03-26T23:49:05;96871.00;;;8.69;80.16
63535;BME280;55128;50.230;18.944;2023-03-26T23:54:05;96872.50;;;8.60;80.34
63535;BME280;55128;50.230;18.944;2023-03-26T23:59:07;96876.56;;;8.79;80.27
